createdAt,value
2024-01-10T00:00:49.996Z,69.21
2024-01-10T00:03:19.865Z,68.27
2024-01-10T00:05:50.046Z,68.33
2024-01-10T00:08:23.362Z,67.65
2024-01-10T00:10:53.275Z,67.67
2024-01-10T00:13:26.213Z,68.04
2024-01-10T00:15:57.055Z,68.41
2024-01-10T00:18:29.897Z,67.38
2024-01-10T00:20:59.932Z,68.10
2024-01-10T00:23:32.423Z,67.89
2024-01-10T00:26:03.037Z,67.66
2024-01-10T00:28:36.420Z,67.12
2024-01-10T00:31:07.073Z,67.57
2024-01-10T00:33:47.687Z,68.52
2024-01-10T00:36:17.959Z,66.90
2024-01-10T00:38:51.371Z,67.60
2024-01-10T00:41:21.802Z,68.51
2024-01-10T00:43:51.915Z,69.07
2024-01-10T00:46:23.333Z,69.06
2024-01-10T00:48:56.483Z,69.02
2024-01-10T00:51:32.363Z,68.86
2024-01-10T00:54:07.755Z,69.52
2024-01-10T00:56:37.777Z,69.84
2024-01-10T00:59:07.891Z,69.65
2024-01-10T01:01:38.270Z,69.14
2024-01-10T01:04:10.142Z,68.50
2024-01-10T01:06:49.290Z,69.47
2024-01-10T01:09:23.176Z,69.47
2024-01-10T01:11:53.629Z,68.78
2024-01-10T01:14:23.587Z,69.44
2024-01-10T01:16:53.604Z,69.74
2024-01-10T01:19:23.618Z,69.27
2024-01-10T01:21:56.589Z,69.32
2024-01-10T01:24:32.468Z,69.06
2024-01-10T01:27:02.339Z,69.19
2024-01-10T01:29:33.257Z,68.90
2024-01-10T01:32:03.281Z,68.46
2024-01-10T01:34:41.945Z,69.87
2024-01-10T01:37:12.208Z,69.60
2024-01-10T01:39:44.911Z,68.88
2024-01-10T01:42:18.258Z,70.60
2024-01-10T01:44:48.625Z,70.75
2024-01-10T01:47:19.752Z,69.87
2024-01-10T01:49:53.460Z,70.63
2024-01-10T01:52:24.004Z,70.10
2024-01-10T01:54:56.471Z,68.30
2024-01-10T01:57:26.498Z,70.03
2024-01-10T01:59:59.128Z,69.93
2024-01-10T02:02:34.653Z,70.72
2024-01-10T02:05:05.610Z,71.36
2024-01-10T02:07:35.526Z,71.56
2024-01-10T02:10:08.996Z,70.48
2024-01-10T02:12:39.133Z,70.50
2024-01-10T02:15:10.057Z,71.03
2024-01-10T02:17:43.585Z,70.49
2024-01-10T02:20:15.267Z,71.33
2024-01-10T02:22:48.376Z,71.43
2024-01-10T02:25:23.092Z,71.91
2024-01-10T02:27:54.159Z,70.34
2024-01-10T02:30:30.169Z,71.01
2024-01-10T02:33:00.173Z,71.19
2024-01-10T02:35:34.306Z,71.03
2024-01-10T02:38:04.541Z,70.52
2024-01-10T02:40:41.963Z,71.34
2024-01-10T02:43:12.762Z,72.27
2024-01-10T02:45:43.043Z,71.42
2024-01-10T02:48:13.256Z,71.20
2024-01-10T02:50:45.193Z,71.63
2024-01-10T02:53:15.253Z,70.50
2024-01-10T02:55:49.466Z,71.70
2024-01-10T02:58:20.204Z,71.88
2024-01-10T03:00:53.772Z,72.47
2024-01-10T03:03:23.656Z,72.13
2024-01-10T03:06:01.716Z,72.34
2024-01-10T03:08:32.435Z,71.45
2024-01-10T03:11:05.141Z,71.79
2024-01-10T03:13:41.365Z,71.97
2024-01-10T03:16:14.520Z,72.08
2024-01-10T03:18:45.237Z,72.23
2024-01-10T03:21:26.682Z,71.51
2024-01-10T03:23:57.885Z,70.83
2024-01-10T03:26:31.993Z,71.88
2024-01-10T03:29:02.848Z,71.82
2024-01-10T03:31:35.202Z,72.18
2024-01-10T03:34:05.808Z,71.88
2024-01-10T03:36:39.305Z,71.29
2024-01-10T03:39:10.598Z,71.70
2024-01-10T03:41:43.162Z,71.82
2024-01-10T03:44:13.779Z,72.18
2024-01-10T03:46:44.401Z,72.46
2024-01-10T03:49:14.790Z,72.60
2024-01-10T03:51:44.765Z,72.22
2024-01-10T03:54:15.206Z,72.91
2024-01-10T03:56:48.434Z,72.81
2024-01-10T03:59:18.710Z,72.96
2024-01-10T04:01:49.756Z,73.75
2024-01-10T04:04:23.792Z,73.13
2024-01-10T04:06:53.697Z,73.97
2024-01-10T04:09:23.678Z,73.20
2024-01-10T04:11:56.181Z,73.29
2024-01-10T04:14:29.792Z,72.62
2024-01-10T04:17:00.472Z,73.93
2024-01-10T04:19:30.390Z,73.63
2024-01-10T04:22:02.850Z,73.55
2024-01-10T04:24:33.201Z,73.94
2024-01-10T04:27:09.304Z,73.14
2024-01-10T04:29:43.740Z,73.57
2024-01-10T04:32:16.750Z,73.66
2024-01-10T04:34:46.998Z,74.49
2024-01-10T04:37:17.197Z,74.61
2024-01-10T04:39:49.242Z,73.92
2024-01-10T04:42:22.100Z,73.90
2024-01-10T04:44:52.176Z,74.58
2024-01-10T04:47:22.728Z,74.23
2024-01-10T04:49:52.793Z,74.34
2024-01-10T04:52:23.373Z,74.74
2024-01-10T04:54:56.102Z,75.11
2024-01-10T04:57:28.586Z,74.52
2024-01-10T04:59:59.175Z,74.62
2024-01-10T05:02:29.790Z,75.18
2024-01-10T05:05:10.576Z,74.69
2024-01-10T05:07:41.573Z,75.36
2024-01-10T05:10:11.900Z,75.02
2024-01-10T05:12:46.109Z,74.57
2024-01-10T05:15:18.297Z,75.16
2024-01-10T05:17:48.323Z,74.93
2024-01-10T05:20:18.346Z,74.19
2024-01-10T05:22:48.362Z,74.89
2024-01-10T05:25:19.794Z,74.31
2024-01-10T05:27:52.386Z,74.51
2024-01-10T05:30:23.153Z,74.60
2024-01-10T05:32:54.008Z,75.30
2024-01-10T05:35:26.015Z,74.60
2024-01-10T05:37:56.146Z,74.89
2024-01-10T05:40:26.030Z,74.45
2024-01-10T05:42:58.579Z,73.60
2024-01-10T05:45:29.372Z,73.77
2024-01-10T05:47:59.591Z,73.73
2024-01-10T05:50:29.606Z,73.53
2024-01-10T05:52:59.859Z,74.64
2024-01-10T05:55:29.859Z,74.16
2024-01-10T05:58:02.288Z,75.37
2024-01-10T06:00:34.840Z,75.16
2024-01-10T06:03:04.862Z,74.47
2024-01-10T06:05:37.728Z,74.61
2024-01-10T06:08:08.368Z,76.33
2024-01-10T06:10:38.872Z,74.78
2024-01-10T06:13:11.460Z,74.33
2024-01-10T06:15:41.340Z,74.92
2024-01-10T06:18:11.388Z,75.34
2024-01-10T06:20:41.573Z,74.65
2024-01-10T06:23:11.520Z,75.50
2024-01-10T06:25:41.416Z,75.55
2024-01-10T06:28:13.941Z,75.17
2024-01-10T06:30:46.598Z,73.24
2024-01-10T06:33:16.702Z,73.41
2024-01-10T06:35:46.745Z,75.02
2024-01-10T06:38:18.367Z,75.63
2024-01-10T06:40:49.031Z,75.91
2024-01-10T06:43:21.821Z,74.92
2024-01-10T06:45:52.288Z,75.09
2024-01-10T06:48:22.236Z,75.68
2024-01-10T06:50:52.092Z,75.67
2024-01-10T06:53:22.035Z,75.26
2024-01-10T06:55:52.306Z,75.91
2024-01-10T06:58:24.885Z,75.37
2024-01-10T07:00:55.386Z,74.99
2024-01-10T07:03:25.397Z,74.74
2024-01-10T07:05:55.289Z,75.60
2024-01-10T07:08:25.279Z,75.99
2024-01-10T07:10:57.095Z,75.89
2024-01-10T07:13:29.729Z,74.16
2024-01-10T07:15:59.692Z,75.73
2024-01-10T07:18:29.625Z,74.98
2024-01-10T07:20:59.581Z,74.88
2024-01-10T07:23:29.528Z,75.59
2024-01-10T07:26:00.259Z,75.82
2024-01-10T07:28:33.975Z,75.61
2024-01-10T07:31:04.041Z,75.20
2024-01-10T07:33:34.610Z,74.63
2024-01-10T07:36:05.362Z,75.61
2024-01-10T07:38:37.735Z,74.55
2024-01-10T07:41:08.115Z,74.90
2024-01-10T07:43:40.998Z,74.60
2024-01-10T07:46:10.904Z,75.43
2024-01-10T07:48:40.894Z,75.63
2024-01-10T07:51:11.099Z,75.66
2024-01-10T07:53:41.032Z,75.82
2024-01-10T07:56:10.847Z,77.04
2024-01-10T07:58:43.482Z,75.64
2024-01-10T08:01:14.121Z,74.92
2024-01-10T08:03:44.119Z,75.19
2024-01-10T08:06:20.851Z,76.20
2024-01-10T08:08:57.320Z,77.00
2024-01-10T08:11:27.539Z,75.82
2024-01-10T08:14:00.059Z,76.70
2024-01-10T08:16:30.008Z,75.95
2024-01-10T08:19:00.738Z,75.88
2024-01-10T08:21:30.745Z,75.24
2024-01-10T08:24:01.031Z,75.55
2024-01-10T08:26:31.314Z,75.64
2024-01-10T08:29:04.016Z,74.22
2024-01-10T08:31:33.958Z,74.90
2024-01-10T08:34:04.712Z,74.58
2024-01-10T08:36:34.660Z,74.75
2024-01-10T08:39:07.757Z,75.71
2024-01-10T08:41:44.406Z,75.96
2024-01-10T08:44:17.621Z,77.08
2024-01-10T08:46:52.376Z,75.96
2024-01-10T08:49:22.546Z,74.91
2024-01-10T08:51:54.665Z,75.55
2024-01-10T08:54:25.971Z,75.39
2024-01-10T08:56:56.071Z,74.05
2024-01-10T08:59:30.417Z,74.68
2024-01-10T09:02:00.365Z,74.38
2024-01-10T09:04:30.333Z,72.83
2024-01-10T09:06:57.688Z,73.62
2024-01-10T09:09:29.135Z,72.11
2024-01-10T09:11:59.070Z,72.86
2024-01-10T09:14:32.114Z,72.94
2024-01-10T09:17:04.137Z,73.11
2024-01-10T09:19:34.698Z,73.62
2024-01-10T09:22:12.366Z,72.80
2024-01-10T09:24:47.497Z,72.97
2024-01-10T09:27:17.864Z,73.15
2024-01-10T09:29:58.166Z,72.67
2024-01-10T09:32:28.162Z,72.52
2024-01-10T09:34:58.792Z,72.87
2024-01-10T09:37:28.735Z,71.85
2024-01-10T09:40:14.863Z,71.31
2024-01-10T09:42:51.917Z,71.93
2024-01-10T09:45:26.721Z,71.71
2024-01-10T09:48:01.056Z,72.70
2024-01-10T09:50:37.044Z,71.46
2024-01-10T09:53:10.730Z,70.83
2024-01-10T09:55:41.554Z,72.21
2024-01-10T09:58:12.906Z,71.34
2024-01-10T10:00:45.542Z,72.10
2024-01-10T10:03:18.256Z,71.67
2024-01-10T10:05:49.198Z,71.63
2024-01-10T10:08:23.973Z,71.44
2024-01-10T10:10:54.450Z,72.06
2024-01-10T10:13:31.466Z,70.70
2024-01-10T10:16:08.535Z,68.65
2024-01-10T10:18:38.699Z,67.24
2024-01-10T10:21:14.419Z,69.03
2024-01-10T10:23:45.647Z,69.70
2024-01-10T10:26:21.412Z,70.12
2024-01-10T10:28:52.049Z,69.80
2024-01-10T10:31:24.769Z,68.36
2024-01-10T10:34:02.862Z,68.36
2024-01-10T10:36:34.501Z,67.31
2024-01-10T10:39:05.741Z,66.91
2024-01-10T10:41:36.419Z,68.61
2024-01-10T10:44:14.007Z,66.86
2024-01-10T10:46:52.953Z,65.76
2024-01-10T10:49:33.008Z,67.87
2024-01-10T10:52:06.956Z,68.33
2024-01-10T10:54:39.193Z,67.98
2024-01-10T10:57:10.070Z,68.04
2024-01-10T10:59:41.401Z,66.58
2024-01-10T11:02:14.771Z,67.40
2024-01-10T11:04:45.743Z,68.27
2024-01-10T11:07:16.141Z,67.98
2024-01-10T11:09:48.514Z,67.51
2024-01-10T11:12:39.537Z,67.53
2024-01-10T11:15:25.631Z,67.15
2024-01-10T11:18:14.491Z,67.73
2024-01-10T11:21:00.084Z,66.79
2024-01-10T11:23:45.739Z,67.19
2024-01-10T11:26:25.468Z,67.42
2024-01-10T11:28:55.750Z,67.02
2024-01-10T11:31:33.018Z,65.57
2024-01-10T11:34:06.708Z,65.54
2024-01-10T11:36:36.826Z,66.99
2024-01-10T11:39:11.830Z,65.49
2024-01-10T11:41:44.110Z,66.09
2024-01-10T11:44:38.254Z,65.28
2024-01-10T11:47:09.004Z,65.67
2024-01-10T11:49:41.834Z,65.81
2024-01-10T11:52:13.373Z,63.52
2024-01-10T11:54:46.196Z,63.68
2024-01-10T11:57:24.358Z,63.52
2024-01-10T11:59:55.845Z,65.44
2024-01-10T12:02:27.692Z,63.98
2024-01-10T12:05:01.004Z,64.66
2024-01-10T12:07:34.171Z,63.96
2024-01-10T12:10:04.547Z,64.28
2024-01-10T12:12:34.861Z,64.15
2024-01-10T12:15:04.997Z,65.39
2024-01-10T12:17:34.895Z,63.47
2024-01-10T12:20:08.493Z,64.82
2024-01-10T12:22:38.912Z,64.86
2024-01-10T12:25:08.915Z,64.25
2024-01-10T12:27:39.660Z,64.55
2024-01-10T12:30:17.937Z,61.82
2024-01-10T12:32:54.591Z,63.34
2024-01-10T12:35:27.179Z,62.57
2024-01-10T12:38:00.514Z,63.33
2024-01-10T12:40:30.583Z,63.08
2024-01-10T12:43:06.304Z,62.25
2024-01-10T12:45:36.290Z,62.63
2024-01-10T12:48:09.698Z,63.20
2024-01-10T12:50:42.276Z,62.94
2024-01-10T12:53:12.341Z,61.01
2024-01-10T12:55:42.296Z,58.85
2024-01-10T12:58:12.277Z,61.44
2024-01-10T13:00:42.547Z,61.40
2024-01-10T13:03:12.417Z,61.95
2024-01-10T13:05:45.022Z,61.59
2024-01-10T13:08:15.101Z,61.31
2024-01-10T13:10:45.997Z,62.21
2024-01-10T13:13:16.346Z,61.91
2024-01-10T13:15:46.713Z,62.04
2024-01-10T13:18:17.307Z,61.53
2024-01-10T13:21:00.913Z,61.55
2024-01-10T13:23:30.891Z,62.78
2024-01-10T13:26:01.027Z,61.11
2024-01-10T13:28:31.637Z,61.79
2024-01-10T13:31:01.732Z,62.59
2024-01-10T13:33:46.797Z,61.89
2024-01-10T13:36:20.974Z,62.92
2024-01-10T13:38:51.209Z,62.94
2024-01-10T13:41:21.143Z,63.31
2024-01-10T13:43:51.643Z,62.63
2024-01-10T13:46:24.218Z,62.40
2024-01-10T13:48:54.660Z,63.00
2024-01-10T13:51:31.832Z,62.68
2024-01-10T13:54:04.643Z,63.18
2024-01-10T13:56:37.985Z,63.05
2024-01-10T13:59:11.071Z,60.17
2024-01-10T14:01:41.532Z,62.86
2024-01-10T14:04:11.448Z,63.58
2024-01-10T14:06:44.313Z,63.49
2024-01-10T14:09:19.128Z,63.41
2024-01-10T14:11:50.109Z,64.03
2024-01-10T14:14:27.080Z,61.76
2024-01-10T14:17:18.936Z,63.18
2024-01-10T14:19:49.646Z,63.26
2024-01-10T14:22:30.359Z,63.38
2024-01-10T14:25:03.370Z,64.41
2024-01-10T14:27:33.534Z,64.36
2024-01-10T14:30:04.843Z,64.67
2024-01-10T14:32:35.177Z,64.45
2024-01-10T14:35:02.854Z,64.60
2024-01-10T14:37:37.796Z,64.55
2024-01-10T14:40:08.795Z,64.95
2024-01-10T14:42:38.697Z,65.29
2024-01-10T14:45:09.812Z,65.12
2024-01-10T14:47:42.754Z,65.29
2024-01-10T14:50:13.559Z,64.95
2024-01-10T14:52:46.822Z,65.40
2024-01-10T14:55:19.637Z,65.65
2024-01-10T14:57:49.544Z,65.74
2024-01-10T15:00:20.679Z,65.65
2024-01-10T15:02:50.736Z,65.95
2024-01-10T15:05:20.731Z,66.17
2024-01-10T15:07:53.726Z,65.81
2024-01-10T15:10:23.806Z,66.12
2024-01-10T15:12:53.662Z,65.98
2024-01-10T15:15:23.658Z,66.34
2024-01-10T15:17:53.499Z,66.04
2024-01-10T15:20:23.796Z,65.66
2024-01-10T15:22:57.364Z,65.77
2024-01-10T15:25:28.092Z,65.87
2024-01-10T15:27:58.258Z,66.25
2024-01-10T15:30:37.651Z,66.51
2024-01-10T15:33:14.440Z,66.97
2024-01-10T15:35:44.500Z,66.65
2024-01-10T15:38:17.106Z,66.61
2024-01-10T15:40:47.066Z,67.15
2024-01-10T15:43:19.886Z,66.78
2024-01-10T15:45:54.648Z,67.00
2024-01-10T15:48:25.034Z,66.97
2024-01-10T15:50:54.900Z,67.33
2024-01-10T15:53:27.373Z,67.57
2024-01-10T15:55:57.559Z,67.59
2024-01-10T15:58:29.543Z,67.53
2024-01-10T16:00:59.556Z,67.41
2024-01-10T16:03:31.696Z,67.66
2024-01-10T16:06:01.815Z,68.17
2024-01-10T16:08:34.620Z,68.08
2024-01-10T16:11:04.488Z,68.24
2024-01-10T16:13:34.419Z,68.50
2024-01-10T16:16:05.772Z,68.96
2024-01-10T16:18:35.787Z,68.94
2024-01-10T16:21:21.187Z,68.86
2024-01-10T16:23:58.780Z,69.36
2024-01-10T16:26:33.763Z,69.49
2024-01-10T16:29:05.076Z,69.61
2024-01-10T16:31:35.046Z,69.98
2024-01-10T16:34:05.218Z,69.80
2024-01-10T16:36:35.075Z,69.78
2024-01-10T16:39:07.569Z,69.97
2024-01-10T16:41:37.484Z,70.14
2024-01-10T16:44:07.870Z,70.34
2024-01-10T16:46:37.832Z,70.68
2024-01-10T16:49:07.810Z,70.70
2024-01-10T16:51:39.054Z,70.65
2024-01-10T16:54:11.668Z,70.71
2024-01-10T16:56:41.715Z,70.46
2024-01-10T16:59:11.597Z,70.48
2024-01-10T17:01:41.467Z,70.73
2024-01-10T17:04:11.463Z,70.86
2024-01-10T17:06:42.834Z,70.88
2024-01-10T17:09:17.791Z,71.15
2024-01-10T17:11:47.682Z,71.08
2024-01-10T17:14:17.741Z,71.41
2024-01-10T17:16:47.672Z,71.42
2024-01-10T17:19:17.793Z,71.58
2024-01-10T17:21:47.673Z,71.82
2024-01-10T17:24:20.265Z,71.64
2024-01-10T17:26:50.239Z,71.37
2024-01-10T17:29:22.745Z,71.44
2024-01-10T17:31:52.655Z,71.71
2024-01-10T17:34:23.246Z,71.54
2024-01-10T17:36:53.150Z,71.64
2024-01-10T17:39:26.432Z,71.83
2024-01-10T17:41:56.339Z,71.81
2024-01-10T17:44:26.363Z,72.00
2024-01-10T17:46:56.521Z,71.94
2024-01-10T17:49:26.468Z,72.32
2024-01-10T17:51:56.449Z,72.31
2024-01-10T17:54:28.996Z,72.31
2024-01-10T17:56:59.617Z,72.15
2024-01-10T17:59:29.636Z,72.38
2024-01-10T18:02:00.247Z,72.55
2024-01-10T18:04:31.015Z,72.80
2024-01-10T18:07:02.132Z,72.92
2024-01-10T18:09:34.639Z,73.00
2024-01-10T18:12:06.406Z,73.19
2024-01-10T18:14:36.512Z,73.44
2024-01-10T18:17:06.823Z,73.39
2024-01-10T18:19:37.046Z,73.54
2024-01-10T18:22:07.373Z,73.55
2024-01-10T18:24:40.053Z,74.12
2024-01-10T18:27:09.906Z,73.50
2024-01-10T18:29:39.847Z,74.44
2024-01-10T18:32:09.875Z,74.50
2024-01-10T18:34:39.807Z,74.42
2024-01-10T18:37:10.211Z,74.32
2024-01-10T18:39:42.804Z,74.29
2024-01-10T18:42:13.209Z,74.76
2024-01-10T18:44:43.127Z,74.87
2024-01-10T18:47:13.471Z,75.25
2024-01-10T18:49:43.422Z,75.56
2024-01-10T18:52:13.742Z,75.75
2024-01-10T18:54:46.727Z,75.53
2024-01-10T18:57:18.294Z,75.67
2024-01-10T18:59:48.326Z,75.95
2024-01-10T19:02:18.363Z,75.92
2024-01-10T19:04:48.310Z,75.99
2024-01-10T19:07:18.254Z,76.15
2024-01-10T19:09:50.802Z,76.67
2024-01-10T19:12:20.866Z,76.83
2024-01-10T19:14:50.709Z,77.36
2024-01-10T19:17:22.372Z,76.51
2024-01-10T19:19:58.523Z,76.48
2024-01-10T19:22:36.227Z,76.75
2024-01-10T19:25:12.587Z,76.88
2024-01-10T19:27:42.551Z,76.94
2024-01-10T19:30:22.279Z,77.39
2024-01-10T19:32:52.897Z,77.35
2024-01-10T19:35:23.400Z,77.86
2024-01-10T19:37:53.448Z,77.77
2024-01-10T19:40:25.958Z,77.58
2024-01-10T19:42:55.930Z,77.75
2024-01-10T19:45:25.882Z,77.54
2024-01-10T19:47:55.851Z,77.89
2024-01-10T19:50:26.107Z,77.65
2024-01-10T19:52:57.719Z,77.56
2024-01-10T19:55:30.276Z,78.18
2024-01-10T19:58:00.198Z,77.99
2024-01-10T20:00:30.069Z,78.22
2024-01-10T20:03:02.168Z,78.26
2024-01-10T20:05:32.288Z,78.32
2024-01-10T20:08:02.385Z,78.84
2024-01-10T20:10:37.389Z,79.44
2024-01-10T20:13:08.347Z,78.72
2024-01-10T20:15:38.704Z,78.89
2024-01-10T20:18:08.961Z,78.84
2024-01-10T20:20:39.060Z,78.69
2024-01-10T20:23:09.157Z,78.75
2024-01-10T20:25:49.470Z,78.75
2024-01-10T20:28:20.428Z,78.58
2024-01-10T20:30:50.515Z,78.74
2024-01-10T20:33:21.074Z,78.73
2024-01-10T20:35:52.398Z,78.91
2024-01-10T20:38:23.149Z,78.84
2024-01-10T20:40:58.609Z,78.92
2024-01-10T20:43:32.974Z,79.37
2024-01-10T20:46:03.805Z,79.88
2024-01-10T20:48:36.954Z,79.18
2024-01-10T20:51:07.047Z,79.62
2024-01-10T20:53:38.960Z,79.50
2024-01-10T20:56:12.628Z,79.35
2024-01-10T20:58:42.694Z,79.58
2024-01-10T21:01:14.253Z,79.71
2024-01-10T21:03:44.271Z,79.67
2024-01-10T21:06:16.242Z,80.71
2024-01-10T21:08:49.779Z,80.52
2024-01-10T21:11:31.390Z,81.02
2024-01-10T21:14:08.079Z,80.53
2024-01-10T21:16:38.288Z,80.30
2024-01-10T21:19:08.558Z,80.15
2024-01-10T21:21:39.754Z,80.09
2024-01-10T21:24:10.156Z,80.03
2024-01-10T21:26:44.721Z,80.44
2024-01-10T21:29:17.818Z,80.63
2024-01-10T21:31:54.640Z,80.58
2024-01-10T21:34:25.220Z,80.22
2024-01-10T21:36:58.488Z,80.61
2024-01-10T21:39:28.446Z,81.12
2024-01-10T21:42:00.979Z,81.15
2024-01-10T21:44:31.051Z,81.30
2024-01-10T21:47:02.689Z,81.21
2024-01-10T21:49:32.864Z,81.09
2024-01-10T21:52:02.689Z,81.80
2024-01-10T21:54:34.103Z,81.53
2024-01-10T21:57:06.818Z,82.56
2024-01-10T21:59:36.732Z,82.24
2024-01-10T22:02:07.131Z,81.87
2024-01-10T22:04:37.171Z,82.14
2024-01-10T22:07:07.462Z,82.04
2024-01-10T22:09:37.375Z,82.51
2024-01-10T22:12:11.187Z,82.05
2024-01-10T22:14:41.215Z,81.89
2024-01-10T22:17:11.109Z,81.74
2024-01-10T22:19:41.014Z,81.73
2024-01-10T22:22:10.966Z,81.70
2024-01-10T22:24:40.975Z,81.46
2024-01-10T22:27:13.555Z,81.75
2024-01-10T22:29:43.524Z,81.79
2024-01-10T22:32:18.302Z,81.66
2024-01-10T22:34:49.928Z,82.20
2024-01-10T22:37:19.885Z,82.08
2024-01-10T22:39:49.926Z,82.30
2024-01-10T22:42:22.478Z,82.79
2024-01-10T22:45:01.312Z,82.58
2024-01-10T22:47:31.532Z,82.23
2024-01-10T22:50:01.452Z,82.42
2024-01-10T22:52:31.441Z,82.48
2024-01-10T22:55:02.354Z,82.54
2024-01-10T22:57:34.893Z,82.78
2024-01-10T23:00:09.922Z,82.47
2024-01-10T23:02:39.894Z,82.65
2024-01-10T23:05:11.465Z,82.73
2024-01-10T23:07:41.935Z,82.81
2024-01-10T23:10:24.413Z,83.54
2024-01-10T23:13:00.004Z,82.79
2024-01-10T23:15:32.935Z,83.25
2024-01-10T23:18:06.318Z,82.52
2024-01-10T23:20:37.272Z,83.03
2024-01-10T23:23:07.598Z,82.65
2024-01-10T23:25:37.462Z,82.91
2024-01-10T23:28:10.080Z,82.67
2024-01-10T23:30:39.965Z,82.75
2024-01-10T23:33:09.976Z,83.02
2024-01-10T23:35:47.636Z,83.46
2024-01-10T23:38:19.095Z,83.52
2024-01-10T23:40:49.406Z,83.42
2024-01-10T23:43:27.006Z,83.39
2024-01-10T23:45:58.026Z,83.83
2024-01-10T23:48:28.395Z,83.88
2024-01-10T23:50:58.411Z,83.59
2024-01-10T23:53:28.639Z,83.79
2024-01-10T23:55:58.600Z,83.74
2024-01-10T23:58:31.069Z,83.97
